createdAt,value
2017-12-16T00:00:03.623Z,55.21
2017-12-16T00:02:32.025Z,55.07
2017-12-16T00:05:00.428Z,55.04
2017-12-16T00:07:28.807Z,55.08
2017-12-16T00:09:57.217Z,54.98
2017-12-16T00:12:25.584Z,55.73
2017-12-16T00:14:53.938Z,55.79
2017-12-16T00:17:22.289Z,55.77
2017-12-16T00:19:50.665Z,55.97
2017-12-16T00:22:19.010Z,56.15
2017-12-16T00:24:47.865Z,55.51
2017-12-16T00:27:16.257Z,55.86
2017-12-16T00:29:46.289Z,55.80
2017-12-16T00:32:14.738Z,55.62
2017-12-16T00:34:43.116Z,55.51
2017-12-16T00:37:11.473Z,56.00
2017-12-16T00:39:39.873Z,55.87
2017-12-16T00:42:08.260Z,55.63
2017-12-16T00:44:36.633Z,55.20
2017-12-16T00:47:04.993Z,55.05
2017-12-16T00:49:33.378Z,55.11
2017-12-16T00:52:01.729Z,54.95
2017-12-16T00:54:30.077Z,55.67
2017-12-16T00:56:58.443Z,55.44
2017-12-16T00:59:26.816Z,55.52
2017-12-16T01:01:55.192Z,55.72
2017-12-16T01:04:23.575Z,55.95
2017-12-16T01:06:51.934Z,55.88
2017-12-16T01:09:20.323Z,56.22
2017-12-16T01:11:48.691Z,56.37
2017-12-16T01:14:17.036Z,56.33
2017-12-16T01:16:45.401Z,56.39
2017-12-16T01:19:14.180Z,56.49
2017-12-16T01:21:42.941Z,56.44
2017-12-16T01:24:11.323Z,56.56
2017-12-16T01:26:39.796Z,56.42
2017-12-16T01:29:08.184Z,56.10
2017-12-16T01:31:36.545Z,55.78
2017-12-16T01:37:32.672Z,56.89
2017-12-16T01:40:01.079Z,57.34
2017-12-16T01:42:29.492Z,57.51
2017-12-16T01:44:58.246Z,57.56
2017-12-16T01:47:26.629Z,57.50
2017-12-16T01:49:55.001Z,57.46
2017-12-16T01:52:23.376Z,58.29
2017-12-16T01:54:51.996Z,58.02
2017-12-16T01:57:20.923Z,58.37
2017-12-16T01:59:49.433Z,58.33
2017-12-16T02:02:17.795Z,58.43
2017-12-16T02:04:46.194Z,57.78
2017-12-16T02:07:14.557Z,57.72
2017-12-16T02:09:42.927Z,57.25
2017-12-16T02:12:11.328Z,57.67
2017-12-16T02:14:39.704Z,57.25
2017-12-16T02:17:08.084Z,57.24
2017-12-16T02:19:36.441Z,57.08
2017-12-16T02:22:04.821Z,57.08
2017-12-16T02:24:33.293Z,56.91
2017-12-16T02:27:01.653Z,57.10
2017-12-16T02:29:30.490Z,57.26
2017-12-16T02:31:58.871Z,57.35
2017-12-16T02:34:27.221Z,57.19
2017-12-16T02:36:56.550Z,56.79
2017-12-16T02:39:24.936Z,57.13
2017-12-16T02:41:53.416Z,56.86
2017-12-16T02:44:21.760Z,56.93
2017-12-16T02:46:50.138Z,57.26
2017-12-16T02:49:18.562Z,56.70
2017-12-16T02:51:46.881Z,56.80
2017-12-16T02:54:15.256Z,56.65
2017-12-16T02:56:44.009Z,57.32
2017-12-16T02:59:12.363Z,57.46
2017-12-16T03:01:40.744Z,57.67
2017-12-16T03:04:09.120Z,57.64
2017-12-16T03:06:37.470Z,57.40
2017-12-16T03:09:05.853Z,58.05
2017-12-16T03:11:34.213Z,57.92
2017-12-16T03:14:02.960Z,59.13
2017-12-16T03:16:31.433Z,58.81
2017-12-16T03:18:59.812Z,58.65
2017-12-16T03:21:28.153Z,58.27
2017-12-16T03:23:56.600Z,58.34
2017-12-16T03:26:25.051Z,58.54
2017-12-16T03:28:53.392Z,58.27
2017-12-16T03:31:21.762Z,58.57
2017-12-16T03:33:50.114Z,58.53
2017-12-16T03:36:18.465Z,58.22
2017-12-16T03:38:46.836Z,57.86
2017-12-16T03:41:15.180Z,58.32
2017-12-16T03:43:43.637Z,59.06
2017-12-16T03:46:11.996Z,57.97
2017-12-16T03:48:40.339Z,58.39
2017-12-16T03:51:08.704Z,58.92
2017-12-16T03:53:37.057Z,59.07
2017-12-16T03:56:05.904Z,58.79
2017-12-16T03:58:34.284Z,58.62
2017-12-16T04:01:02.666Z,58.47
2017-12-16T04:03:31.032Z,58.07
2017-12-16T04:05:59.386Z,58.32
2017-12-16T04:08:27.753Z,58.37
2017-12-16T04:10:56.100Z,59.29
2017-12-16T04:13:24.440Z,59.52
2017-12-16T04:15:52.797Z,59.20
2017-12-16T04:18:21.147Z,59.37
2017-12-16T04:20:50.066Z,58.55
2017-12-16T04:23:18.884Z,59.03
2017-12-16T04:25:47.733Z,58.93
2017-12-16T04:28:16.088Z,58.67
2017-12-16T04:30:44.428Z,58.00
2017-12-16T04:33:12.813Z,58.65
2017-12-16T04:35:41.160Z,58.20
2017-12-16T04:38:09.510Z,58.62
2017-12-16T04:40:38.257Z,58.80
2017-12-16T04:43:06.625Z,58.49
2017-12-16T04:45:35.802Z,57.96
2017-12-16T04:48:04.148Z,58.69
2017-12-16T04:50:32.992Z,59.56
2017-12-16T04:53:01.361Z,59.38
2017-12-16T04:55:29.756Z,60.73
2017-12-16T04:57:58.144Z,59.83
2017-12-16T05:00:26.514Z,59.48
2017-12-16T05:02:54.884Z,59.68
2017-12-16T05:05:23.247Z,59.52
2017-12-16T05:07:51.616Z,58.96
2017-12-16T05:10:20.022Z,58.98
2017-12-16T05:12:48.368Z,58.83
2017-12-16T05:15:16.728Z,58.69
2017-12-16T05:17:45.166Z,58.93
2017-12-16T05:20:13.525Z,58.96
2017-12-16T05:22:41.899Z,59.18
2017-12-16T05:25:10.261Z,59.16
2017-12-16T05:27:38.604Z,59.22
2017-12-16T05:30:06.961Z,59.60
2017-12-16T05:32:35.325Z,59.72
2017-12-16T05:35:03.713Z,59.64
2017-12-16T05:37:32.083Z,59.53
2017-12-16T05:40:00.468Z,59.47
2017-12-16T05:42:28.855Z,59.45
2017-12-16T05:44:57.203Z,59.39
2017-12-16T05:47:25.568Z,60.75
2017-12-16T05:49:53.923Z,60.85
2017-12-16T05:52:22.769Z,60.91
2017-12-16T05:54:51.127Z,59.77
2017-12-16T05:57:19.472Z,59.58
2017-12-16T05:59:48.321Z,59.63
2017-12-16T06:02:16.678Z,60.01
2017-12-16T06:04:45.081Z,59.71
2017-12-16T06:07:13.479Z,59.43
2017-12-16T06:09:41.816Z,60.60
2017-12-16T06:12:10.208Z,60.02
2017-12-16T06:14:38.560Z,59.87
2017-12-16T06:17:06.973Z,59.85
2017-12-16T06:19:35.328Z,59.75
2017-12-16T06:22:03.731Z,58.98
2017-12-16T06:24:32.104Z,58.50
2017-12-16T06:27:00.453Z,59.02
2017-12-16T06:29:28.816Z,59.23
2017-12-16T06:31:57.656Z,58.80
2017-12-16T06:34:26.027Z,58.64
2017-12-16T06:36:54.432Z,58.45
2017-12-16T06:39:22.789Z,58.53
2017-12-16T06:41:51.140Z,58.45
2017-12-16T06:44:19.582Z,58.26
2017-12-16T06:46:47.933Z,57.87
2017-12-16T06:49:16.309Z,58.53
2017-12-16T06:51:44.662Z,59.21
2017-12-16T06:54:13.043Z,58.85
2017-12-16T06:56:41.431Z,59.29
2017-12-16T06:59:09.787Z,58.23
2017-12-16T07:01:38.156Z,58.81
2017-12-16T07:04:06.585Z,58.74
2017-12-16T07:06:34.924Z,59.00
2017-12-16T07:09:03.911Z,59.32
2017-12-16T07:11:32.275Z,59.29
2017-12-16T07:14:01.204Z,58.91
2017-12-16T07:16:29.544Z,58.91
2017-12-16T07:18:58.337Z,58.63
2017-12-16T07:21:26.857Z,58.37
2017-12-16T07:23:55.200Z,59.21
2017-12-16T07:26:23.565Z,58.98
2017-12-16T07:28:52.413Z,58.79
2017-12-16T07:31:20.762Z,58.86
2017-12-16T07:33:49.155Z,58.73
2017-12-16T07:36:17.529Z,59.08
2017-12-16T07:38:45.932Z,58.84
2017-12-16T07:41:14.288Z,58.71
2017-12-16T07:43:42.696Z,58.44
2017-12-16T07:46:11.056Z,57.98
2017-12-16T07:48:39.400Z,58.26
2017-12-16T07:51:07.837Z,58.76
2017-12-16T07:53:36.182Z,58.80
2017-12-16T07:56:04.573Z,58.77
2017-12-16T07:58:33.030Z,58.06
2017-12-16T08:01:01.383Z,57.54
2017-12-16T08:03:29.745Z,57.80
2017-12-16T08:05:58.109Z,57.70
2017-12-16T08:08:26.456Z,56.42
2017-12-16T08:10:54.849Z,53.87
2017-12-16T08:13:23.259Z,53.20
2017-12-16T08:15:51.758Z,53.62
2017-12-16T08:18:30.310Z,53.64
2017-12-16T08:20:58.660Z,52.79
2017-12-16T08:23:27.031Z,51.26
2017-12-16T08:25:55.772Z,50.03
2017-12-16T08:28:24.114Z,49.09
2017-12-16T08:30:52.531Z,48.04
2017-12-16T08:33:20.880Z,47.24
2017-12-16T08:35:49.262Z,45.97
2017-12-16T08:38:17.648Z,46.89
2017-12-16T08:40:46.010Z,46.04
2017-12-16T08:43:14.364Z,48.15
2017-12-16T08:45:43.197Z,49.23
2017-12-16T08:48:11.589Z,49.01
2017-12-16T08:50:39.939Z,50.24
2017-12-16T08:53:08.339Z,49.95
2017-12-16T08:55:36.689Z,50.88
2017-12-16T08:58:05.072Z,51.81
2017-12-16T09:00:33.435Z,52.99
2017-12-16T09:03:02.263Z,54.32
2017-12-16T09:05:30.621Z,53.89
2017-12-16T09:07:58.991Z,54.17
2017-12-16T09:10:27.331Z,54.28
2017-12-16T09:12:55.706Z,53.50
2017-12-16T09:15:24.056Z,53.49
2017-12-16T09:17:52.420Z,53.07
2017-12-16T09:20:21.659Z,52.79
2017-12-16T09:22:50.019Z,52.44
2017-12-16T09:25:19.228Z,52.30
2017-12-16T09:27:47.595Z,52.03
2017-12-16T09:30:15.941Z,51.29
2017-12-16T09:32:44.301Z,50.24
2017-12-16T09:35:13.127Z,50.61
2017-12-16T09:37:41.520Z,50.40
2017-12-16T09:40:09.896Z,51.25
2017-12-16T09:42:38.235Z,51.07
2017-12-16T09:45:06.652Z,50.94
2017-12-16T09:47:35.054Z,50.97
2017-12-16T09:50:03.470Z,51.06
2017-12-16T09:52:31.820Z,50.79
2017-12-16T09:55:00.187Z,50.60
2017-12-16T09:57:28.699Z,50.04
2017-12-16T09:59:57.023Z,50.72
2017-12-16T10:02:25.391Z,50.90
2017-12-16T10:04:53.779Z,52.00
2017-12-16T10:07:22.172Z,52.11
2017-12-16T10:09:50.513Z,52.76
2017-12-16T10:12:18.920Z,53.31
2017-12-16T10:14:47.277Z,53.49
2017-12-16T10:17:15.619Z,54.29
2017-12-16T10:19:44.053Z,54.04
2017-12-16T10:22:12.429Z,54.51
2017-12-16T10:24:40.857Z,54.30
2017-12-16T10:27:09.607Z,55.70
2017-12-16T10:29:37.955Z,55.63
2017-12-16T10:32:06.318Z,55.64
2017-12-16T10:34:34.667Z,57.04
2017-12-16T10:37:03.035Z,57.22
2017-12-16T10:39:31.387Z,57.92
2017-12-16T10:41:59.719Z,58.57
2017-12-16T10:44:28.459Z,59.35
2017-12-16T10:46:56.828Z,58.36
2017-12-16T10:49:25.202Z,58.63
2017-12-16T10:51:53.547Z,59.37
2017-12-16T10:54:22.291Z,59.85
2017-12-16T10:56:50.659Z,58.94
2017-12-16T10:59:19.017Z,59.63
2017-12-16T11:01:47.452Z,59.45
2017-12-16T11:04:15.813Z,59.26
2017-12-16T11:06:44.160Z,60.17
2017-12-16T11:09:12.499Z,60.80
2017-12-16T11:11:41.338Z,60.45
2017-12-16T11:14:09.679Z,60.90
2017-12-16T11:16:38.142Z,60.91
2017-12-16T11:19:06.993Z,59.60
2017-12-16T11:21:35.352Z,59.90
2017-12-16T11:24:03.695Z,60.00
2017-12-16T11:26:32.468Z,61.17
2017-12-16T11:29:00.816Z,61.58
2017-12-16T11:31:29.159Z,59.94
2017-12-16T11:33:57.516Z,58.69
2017-12-16T11:36:25.855Z,59.77
2017-12-16T11:38:54.341Z,59.05
2017-12-16T11:41:22.713Z,59.14
2017-12-16T11:43:51.069Z,58.55
2017-12-16T11:46:19.456Z,57.65
2017-12-16T11:48:47.830Z,58.06
2017-12-16T11:51:16.164Z,57.97
2017-12-16T11:53:44.894Z,58.12
2017-12-16T11:56:13.263Z,57.45
2017-12-16T11:58:41.605Z,56.81
2017-12-16T12:01:10.459Z,56.75
2017-12-16T12:03:38.930Z,56.33
2017-12-16T12:06:07.340Z,55.69
2017-12-16T12:08:35.720Z,55.33
2017-12-16T12:11:04.067Z,55.30
2017-12-16T12:13:32.414Z,55.85
2017-12-16T12:16:00.772Z,55.51
2017-12-16T12:18:29.195Z,55.21
2017-12-16T12:20:57.546Z,56.14
2017-12-16T12:23:25.905Z,56.27
2017-12-16T12:25:54.740Z,58.74
2017-12-16T12:28:23.100Z,57.62
2017-12-16T12:30:51.497Z,57.41
2017-12-16T12:33:19.852Z,57.55
2017-12-16T12:35:48.200Z,58.54
2017-12-16T12:38:16.545Z,59.10
2017-12-16T12:40:44.900Z,58.96
2017-12-16T12:43:13.276Z,60.16
2017-12-16T12:45:41.616Z,59.48
2017-12-16T12:48:10.052Z,59.63
2017-12-16T12:50:38.395Z,59.45
2017-12-16T12:53:06.753Z,58.69
2017-12-16T12:55:35.097Z,59.57
2017-12-16T12:58:03.458Z,59.74
2017-12-16T13:00:31.788Z,60.27
2017-12-16T13:03:00.229Z,60.10
2017-12-16T13:05:28.590Z,59.81
2017-12-16T13:07:56.980Z,59.47
2017-12-16T13:10:25.346Z,59.51
2017-12-16T13:12:53.853Z,59.76
2017-12-16T13:15:22.240Z,60.19
2017-12-16T13:17:50.916Z,60.15
2017-12-16T13:20:19.367Z,60.31
2017-12-16T13:22:47.745Z,59.79
2017-12-16T13:25:16.144Z,59.56
2017-12-16T13:27:44.515Z,59.65
2017-12-16T13:30:12.870Z,60.89
2017-12-16T13:32:41.248Z,60.55
2017-12-16T13:35:09.608Z,60.25
2017-12-16T13:37:38.351Z,61.65
2017-12-16T13:40:06.750Z,62.37
2017-12-16T13:42:35.135Z,62.80
2017-12-16T13:45:03.694Z,63.60
2017-12-16T13:47:32.071Z,64.33
2017-12-16T13:50:00.408Z,63.88
2017-12-16T13:52:28.851Z,63.43
2017-12-16T13:54:57.316Z,63.72
2017-12-16T13:57:25.656Z,63.45
2017-12-16T13:59:54.017Z,62.69
2017-12-16T14:02:22.365Z,62.64
2017-12-16T14:04:50.715Z,62.60
2017-12-16T14:07:19.077Z,62.36
2017-12-16T14:09:47.552Z,63.06
2017-12-16T14:12:15.892Z,63.42
2017-12-16T14:14:44.256Z,62.97
2017-12-16T14:17:12.617Z,64.13
2017-12-16T14:19:40.972Z,63.66
2017-12-16T14:22:09.339Z,63.64
2017-12-16T14:24:37.815Z,64.15
2017-12-16T14:27:06.169Z,64.01
2017-12-16T14:29:34.916Z,64.40
2017-12-16T14:32:03.272Z,64.50
2017-12-16T14:34:31.630Z,65.05
2017-12-16T14:37:00.116Z,65.01
2017-12-16T14:39:28.543Z,64.82
2017-12-16T14:41:56.895Z,64.27
2017-12-16T14:44:25.252Z,63.83
2017-12-16T14:46:53.607Z,64.36
2017-12-16T14:49:22.365Z,63.95
2017-12-16T14:51:50.829Z,63.91
2017-12-16T14:54:19.176Z,63.60
2017-12-16T14:56:47.560Z,63.97
2017-12-16T14:59:16.018Z,64.68
2017-12-16T15:01:44.869Z,64.57
2017-12-16T15:04:13.232Z,64.74
2017-12-16T15:06:41.609Z,65.21
2017-12-16T15:09:09.968Z,65.18
2017-12-16T15:11:38.341Z,66.28
2017-12-16T15:14:06.699Z,65.58
2017-12-16T15:16:35.543Z,65.42
2017-12-16T15:19:04.015Z,64.66
2017-12-16T15:21:32.416Z,65.23
2017-12-16T15:24:00.849Z,65.49
2017-12-16T15:26:29.381Z,64.89
2017-12-16T15:28:57.732Z,64.99
2017-12-16T15:31:26.125Z,65.78
2017-12-16T15:33:54.475Z,66.19
2017-12-16T15:38:50.679Z,65.58
2017-12-16T15:41:19.134Z,65.00
2017-12-16T15:43:47.499Z,64.99
2017-12-16T15:46:16.084Z,65.00
2017-12-16T15:48:44.434Z,65.14
2017-12-16T15:51:12.851Z,64.70
2017-12-16T15:53:41.228Z,64.89
2017-12-16T15:56:09.568Z,64.08
2017-12-16T15:58:37.925Z,64.36
2017-12-16T16:01:06.664Z,63.65
2017-12-16T16:03:35.070Z,63.43
2017-12-16T16:06:03.540Z,64.34
2017-12-16T16:08:31.970Z,64.06
2017-12-16T16:11:00.278Z,63.61
2017-12-16T16:13:28.703Z,64.80
2017-12-16T16:15:57.223Z,63.55
2017-12-16T16:18:25.563Z,63.03
2017-12-16T16:20:54.423Z,63.14
2017-12-16T16:23:22.795Z,62.40
2017-12-16T16:25:51.149Z,62.24
2017-12-16T16:28:19.503Z,61.98
2017-12-16T16:30:48.264Z,61.54
2017-12-16T16:33:16.635Z,62.39
2017-12-16T16:35:44.998Z,63.40
2017-12-16T16:38:13.348Z,64.49
2017-12-16T16:40:41.701Z,64.75
2017-12-16T16:43:10.447Z,65.86
2017-12-16T16:45:38.920Z,66.09
2017-12-16T16:48:07.295Z,65.62
2017-12-16T16:50:35.679Z,65.04
2017-12-16T16:53:04.040Z,65.52
2017-12-16T16:55:32.398Z,65.54
2017-12-16T16:58:00.787Z,65.65
2017-12-16T17:00:29.123Z,66.06
2017-12-16T17:02:57.490Z,66.37
2017-12-16T17:05:25.859Z,65.32
2017-12-16T17:07:54.212Z,65.34
2017-12-16T17:10:22.572Z,65.69
2017-12-16T17:12:50.920Z,64.87
2017-12-16T17:15:19.768Z,64.89
2017-12-16T17:17:48.111Z,65.27
2017-12-16T17:20:16.471Z,65.61
2017-12-16T17:22:45.243Z,65.22
2017-12-16T17:25:13.694Z,65.85
2017-12-16T17:27:42.339Z,65.67
2017-12-16T17:30:10.736Z,65.34
2017-12-16T17:32:39.074Z,65.60
2017-12-16T17:35:07.511Z,64.87
2017-12-16T17:37:35.959Z,65.32
2017-12-16T17:40:04.372Z,65.58
2017-12-16T17:42:32.724Z,65.94
2017-12-16T17:45:01.122Z,65.02
2017-12-16T17:47:29.512Z,65.13
2017-12-16T17:49:57.860Z,65.11
2017-12-16T17:54:54.251Z,65.05
2017-12-16T17:57:22.601Z,64.46
2017-12-16T17:59:50.957Z,64.01
2017-12-16T18:02:19.780Z,64.55
2017-12-16T18:04:48.119Z,64.09
2017-12-16T18:07:16.471Z,64.10
2017-12-16T18:09:44.820Z,64.60
2017-12-16T18:12:13.184Z,65.08
2017-12-16T18:14:41.537Z,64.44
2017-12-16T18:17:09.951Z,64.21
2017-12-16T18:19:38.332Z,63.32
2017-12-16T18:22:06.718Z,64.31
2017-12-16T18:24:35.072Z,63.86
2017-12-16T18:27:03.429Z,63.71
2017-12-16T18:29:32.186Z,63.37
2017-12-16T18:34:34.169Z,62.24
2017-12-16T18:37:02.620Z,62.75
2017-12-16T18:39:30.991Z,62.46
2017-12-16T18:41:59.348Z,62.74
2017-12-16T18:44:27.695Z,63.46
2017-12-16T18:46:56.518Z,63.34
2017-12-16T18:49:24.868Z,63.32
2017-12-16T18:51:53.611Z,62.14
2017-12-16T18:54:21.974Z,62.59
2017-12-16T18:56:50.330Z,62.62
2017-12-16T18:59:18.687Z,62.68
2017-12-16T19:01:47.530Z,62.45
2017-12-16T19:04:15.882Z,61.75
2017-12-16T19:06:44.296Z,62.79
2017-12-16T19:09:12.655Z,62.37
2017-12-16T19:11:41.024Z,62.93
2017-12-16T19:14:09.391Z,63.07
2017-12-16T19:16:37.740Z,62.80
2017-12-16T19:19:06.488Z,62.95
2017-12-16T19:21:34.861Z,62.87
2017-12-16T19:24:03.274Z,63.02
2017-12-16T19:26:31.632Z,63.61
2017-12-16T19:29:00.009Z,63.58
2017-12-16T19:31:28.368Z,63.15
2017-12-16T19:33:56.798Z,62.84
2017-12-16T19:36:25.244Z,62.53
2017-12-16T19:38:53.591Z,61.88
2017-12-16T19:41:21.950Z,62.75
2017-12-16T19:43:50.684Z,62.59
2017-12-16T19:46:19.051Z,62.47
2017-12-16T19:48:47.410Z,64.23
2017-12-16T19:51:15.821Z,63.64
2017-12-16T19:53:44.184Z,63.22
2017-12-16T19:56:12.576Z,62.74
2017-12-16T19:58:40.924Z,62.64
2017-12-16T20:01:09.272Z,63.12
2017-12-16T20:03:37.723Z,62.39
2017-12-16T20:06:06.088Z,62.54
2017-12-16T20:08:34.448Z,62.47
2017-12-16T20:11:02.852Z,63.30
2017-12-16T20:13:31.203Z,63.06
2017-12-16T20:15:59.551Z,63.04
2017-12-16T20:18:28.316Z,62.64
2017-12-16T20:20:56.658Z,62.73
2017-12-16T20:23:25.000Z,63.05
2017-12-16T20:25:53.750Z,63.02
2017-12-16T20:28:22.111Z,63.30
2017-12-16T20:30:50.592Z,64.93
2017-12-16T20:33:18.938Z,63.99
2017-12-16T20:35:47.284Z,63.65
2017-12-16T20:38:15.641Z,63.71
2017-12-16T20:40:44.007Z,64.51
2017-12-16T20:43:12.385Z,65.00
2017-12-16T20:45:40.743Z,64.10
2017-12-16T20:48:09.140Z,63.93
2017-12-16T20:50:37.504Z,63.48
2017-12-16T20:53:05.896Z,63.90
2017-12-16T20:55:34.269Z,64.58
2017-12-16T20:58:02.624Z,64.53
2017-12-16T21:00:30.987Z,64.57
2017-12-16T21:02:59.733Z,64.71
2017-12-16T21:05:28.085Z,64.44
2017-12-16T21:07:56.480Z,64.71
2017-12-16T21:10:24.857Z,64.88
2017-12-16T21:12:53.196Z,65.26
2017-12-16T21:15:22.024Z,64.69
2017-12-16T21:17:50.367Z,64.82
2017-12-16T21:20:19.303Z,64.21
2017-12-16T21:22:47.785Z,63.18
2017-12-16T21:25:16.150Z,62.91
2017-12-16T21:27:44.676Z,62.63
2017-12-16T21:30:13.019Z,63.02
2017-12-16T21:32:41.380Z,61.69
2017-12-16T21:35:09.775Z,61.74
2017-12-16T21:37:38.269Z,61.72
2017-12-16T21:40:06.628Z,61.96
2017-12-16T21:42:34.985Z,62.20
2017-12-16T21:45:03.433Z,62.05
2017-12-16T21:47:31.777Z,62.91
2017-12-16T21:50:00.128Z,61.59
2017-12-16T21:52:28.496Z,61.98
2017-12-16T21:54:56.912Z,61.77
2017-12-16T21:57:25.441Z,61.09
2017-12-16T21:59:54.172Z,61.24
2017-12-16T22:02:22.522Z,60.97
2017-12-16T22:04:50.889Z,60.74
2017-12-16T22:07:19.639Z,60.44
2017-12-16T22:09:48.004Z,60.75
2017-12-16T22:12:16.356Z,60.69
2017-12-16T22:14:44.758Z,60.87
2017-12-16T22:17:13.133Z,60.53
2017-12-16T22:19:41.512Z,60.33
2017-12-16T22:22:09.867Z,60.26
2017-12-16T22:24:38.218Z,60.75
2017-12-16T22:27:07.033Z,61.43
2017-12-16T22:29:35.431Z,60.96
2017-12-16T22:32:03.796Z,61.10
2017-12-16T22:34:32.296Z,59.77
2017-12-16T22:37:01.044Z,60.32
2017-12-16T22:39:29.877Z,61.70
2017-12-16T22:41:58.224Z,61.00
2017-12-16T22:44:26.629Z,60.68
2017-12-16T22:46:55.026Z,61.29
2017-12-16T22:49:23.384Z,61.27
2017-12-16T22:51:51.846Z,62.00
2017-12-16T22:54:20.231Z,61.07
2017-12-16T22:56:48.577Z,60.67
2017-12-16T22:59:17.315Z,60.02
2017-12-16T23:01:45.659Z,60.28
2017-12-16T23:04:14.028Z,60.47
2017-12-16T23:06:42.823Z,60.36
2017-12-16T23:09:11.286Z,60.71
2017-12-16T23:11:39.665Z,61.67
2017-12-16T23:14:08.421Z,61.29
2017-12-16T23:16:36.780Z,60.99
2017-12-16T23:19:05.133Z,62.10
2017-12-16T23:21:33.547Z,61.63
2017-12-16T23:24:01.920Z,62.03
2017-12-16T23:26:30.265Z,61.71
2017-12-16T23:28:58.692Z,61.48
2017-12-16T23:31:27.047Z,61.50
2017-12-16T23:33:55.395Z,61.43
2017-12-16T23:36:23.810Z,61.31
2017-12-16T23:38:52.154Z,61.72
2017-12-16T23:41:20.996Z,61.44
2017-12-16T23:43:49.355Z,62.41
2017-12-16T23:46:17.699Z,62.50
2017-12-16T23:48:46.184Z,61.91
2017-12-16T23:51:14.525Z,61.72
2017-12-16T23:53:42.973Z,61.65
2017-12-16T23:56:11.316Z,61.69
2017-12-16T23:58:40.061Z,61.37
